McCall, Idaho
Current Conditions -  °F | °C
As of 12:33 PM on Friday 24 Oct 2014 (Local Time) from KMYL Reporting Station
Light Rain Light Rain  
Wind Chill: 40°   Ceiling: 2500
Heat Index: 43°   Visibility: 4mi
Dew Point: 41°   Wind: 5mph
Humidity: 93%   Direction: 50°NE
Pressure: 30.12"   Gusts: NA
Location:  44.91°N, 116.1°W
Report Text: KMYL 241833Z AUTO 05004KT 4SM -RA BR SCT009 BKN025 OVC033 06/05 A3012 RMK AO2 P0001 T00610050
Loading
Personal Weather Stations






























Interactive Weather Map
Tropical Storm Tracking
New forecast layout! Learn more

10-Day Weather Forecast

Advertisements
Track Severe Weather on mobile